Fenwick, West Virginia
Current Conditions -  °F | °C
As of 5:15 PM on Sunday 23 Nov 2014 (Local Time) from KLWB Reporting Station
Drizzle Drizzle  
Wind Chill: 50°   Ceiling: 1700
Heat Index: 50°   Visibility: 10mi
Dew Point: 44°   Wind: 6mph
Humidity: 79%   Direction: 100°E
Pressure: 29.94"   Gusts: NA
Location:  38.23°N, 80.58°W
Report Text: KLWB 232215Z AUTO 10005KT 10SM DZ OVC017 10/07 A2994 RMK AO2 T01000066
Loading
Personal Weather Stations






























Interactive Weather Map New forecast layout! Learn more

10-Day Weather Forecast

Advertisements
Track Severe Weather on mobile